Current Weather

Ronald Reagan Washington Ntl

Arlington, Virginia (KDCA)

Report from: Tuesday, July 16, 2024 3:52 AM EDT
Current time: Tuesday, July 16, 2024 4:48 AM EDT

Nearby weather – Weather history – Daily summaries
Weather forecast

Temperature26.7°C (80.1°F)
Heat index28.6°C (83.5°F)
Dew point21.1°C (70.0°F)
Winds 7 kts (3.6 m/s, 8.1 mph) South (180°)
Visibility10 mi. (16.1 km)
Clouds Scattered clouds 25,000 ft. (7,620 m)
Altimeter29.83 in.Hg (1010 mB)
Relative humidity71 %
Density altitude1,797 ft. (548 m)
Sea-level pressure101.0 kPa (1010 mB, 29.83 in.Hg)
Remarks Automated weather observing station with precipitation discriminator
Flight conditions Visual Meteorological Conditions
Raw dataKDCA 160752Z 18007KT 10SM SCT250 27/21 A2983 RMK AO2 SLP100 T02670211
An error has occurred. This application may no longer respond until reloaded. Reload 🗙